Time;durP1;ratioP1;P1;durP2;ratioP2;P2;SDS_P1;SDS_P2;PMS_P1;PMS_P2;Temp;Humidity;BMP_temperature;BMP_pressure;BME280_temperature;BME280_humidity;BME280_pressure;Samples;Min_cycle;Max_cycle;Signal;HPM_P1;HPM_P2
2022/05/18 00:01:29;;;;;;;9.80;6.97;;;16.50;99.90;;;;;;5125037;27;20205;-69
2022/05/18 00:03:54;;;;;;;11.37;7.03;;;16.40;99.90;;;;;;5134019;27;20181;-70
2022/05/18 00:06:20;;;;;;;7.13;6.40;;;16.50;99.90;;;;;;5135557;27;20675;-69
2022/05/18 00:08:45;;;;;;;7.55;6.78;;;16.60;99.90;;;;;;5136972;27;20162;-69
2022/05/18 00:11:16;;;;;;;7.60;6.50;;;16.50;99.90;;;;;;5138297;27;20165;-69
2022/05/18 00:13:45;;;;;;;8.17;6.73;;;16.50;99.90;;;;;;5117483;27;20177;-69
2022/05/18 00:16:12;;;;;;;8.57;6.65;;;16.40;99.90;;;;;;5140684;27;20529;-69
2022/05/18 00:18:37;;;;;;;7.30;6.60;;;16.30;99.90;;;;;;5114151;28;20186;-69
2022/05/18 00:21:04;;;;;;;11.65;7.28;;;16.30;99.90;;;;;;5124313;27;20651;-69
2022/05/18 00:23:30;;;;;;;7.35;6.30;;;16.20;99.90;;;;;;5144523;27;20169;-70
2022/05/18 00:25:56;;;;;;;10.82;6.78;;;16.30;99.90;;;;;;5143963;27;20640;-69
2022/05/18 00:28:22;;;;;;;9.33;6.67;;;16.30;99.90;;;;;;5135658;27;20172;-68
2022/05/18 00:30:48;;;;;;;7.10;6.40;;;16.10;99.90;;;;;;5132515;27;20200;-70
2022/05/18 00:33:14;;;;;;;7.50;5.90;;;16.10;99.90;;;;;;5134820;27;20597;-69
2022/05/18 00:35:41;;;;;;;9.40;6.40;;;16.10;99.90;;;;;;5135250;27;20245;-68
2022/05/18 00:38:07;;;;;;;9.23;6.60;;;16.10;99.90;;;;;;5134947;27;20586;-69
2022/05/18 00:40:34;;;;;;;9.40;6.82;;;16.10;99.90;;;;;;5148315;27;20181;-70
2022/05/18 00:42:59;;;;;;;9.35;6.82;;;16.10;99.90;;;;;;5132184;27;20165;-70
2022/05/18 00:45:26;;;;;;;7.53;6.78;;;16.00;99.90;;;;;;5113838;28;20178;-70
2022/05/18 00:47:52;;;;;;;13.23;6.68;;;16.00;99.90;;;;;;5114262;28;20230;-69
2022/05/18 00:50:28;;;;;;;9.30;7.00;;;16.00;99.90;;;;;;5114218;28;20620;-70
2022/05/18 00:53:06;;;;;;;8.52;7.15;;;16.00;99.90;;;;;;5113784;28;20186;-69
2022/05/18 00:55:37;;;;;;;10.10;6.83;;;16.00;99.90;;;;;;5126017;28;20205;-70
2022/05/18 00:58:38;;;;;;;10.37;6.97;;;16.00;99.90;;;;;;5148756;27;20181;-68
2022/05/18 01:01:04;;;;;;;10.90;7.67;;;15.70;99.90;;;;;;5082623;28;20203;-70
2022/05/18 01:03:34;;;;;;;8.00;6.70;;;15.90;99.90;;;;;;5114359;28;20174;-69
2022/05/18 01:06:25;;;;;;;8.03;6.90;;;15.80;99.90;;;;;;5117905;28;20284;-69
2022/05/18 01:08:53;;;;;;;10.77;7.22;;;15.80;99.90;;;;;;5118572;28;20167;-69
2022/05/18 01:11:19;;;;;;;7.73;6.40;;;15.80;99.90;;;;;;5118000;28;20618;-69
2022/05/18 01:13:46;;;;;;;8.37;7.13;;;15.80;99.90;;;;;;5118302;28;20621;-70
2022/05/18 01:16:12;;;;;;;7.87;7.07;;;15.70;99.90;;;;;;5115209;27;20198;-69
2022/05/18 01:18:39;;;;;;;7.47;6.30;;;15.80;99.90;;;;;;5118770;27;20195;-69
2022/05/18 01:21:04;;;;;;;8.13;6.83;;;15.80;99.90;;;;;;5138602;27;20499;-69
2022/05/18 01:23:47;;;;;;;9.40;7.10;;;15.70;99.90;;;;;;5138548;27;20157;-69
2022/05/18 01:26:18;;;;;;;8.20;6.80;;;15.80;99.90;;;;;;5154453;27;20601;-70
2022/05/18 01:29:01;;;;;;;8.83;7.13;;;15.70;99.90;;;;;;5139018;27;20165;-70
2022/05/18 01:31:41;;;;;;;8.43;7.20;;;15.70;99.90;;;;;;5120608;27;20200;-70
2022/05/18 01:34:07;;;;;;;8.53;7.33;;;15.60;99.90;;;;;;5138259;27;20252;-69
2022/05/18 01:36:33;;;;;;;11.03;7.67;;;15.50;99.90;;;;;;5127638;27;20301;-69
2022/05/18 01:38:59;;;;;;;8.67;7.30;;;15.50;99.90;;;;;;5128618;27;20261;-69
2022/05/18 01:41:27;;;;;;;10.33;7.33;;;15.60;99.90;;;;;;5136225;27;20265;-69
2022/05/18 01:43:59;;;;;;;10.40;7.00;;;15.60;99.90;;;;;;5121234;28;20338;-69
2022/05/18 01:46:27;;;;;;;10.43;8.13;;;15.50;99.90;;;;;;5129136;28;20159;-70
2022/05/18 01:48:53;;;;;;;10.97;7.20;;;15.50;99.90;;;;;;5131136;28;20543;-69
2022/05/18 01:51:34;;;;;;;7.90;7.10;;;15.50;99.90;;;;;;5121915;28;20500;-69
2022/05/18 01:54:00;;;;;;;8.07;7.27;;;15.50;99.90;;;;;;5117928;28;20250;-70
2022/05/18 01:56:25;;;;;;;12.20;7.43;;;15.40;99.90;;;;;;5117475;28;20221;-69
2022/05/18 01:58:52;;;;;;;11.57;7.83;;;15.40;99.90;;;;;;5115267;28;20577;-69
2022/05/18 02:01:17;;;;;;;10.23;7.93;;;15.40;99.90;;;;;;5119247;27;20629;-69
2022/05/18 02:03:43;;;;;;;9.13;7.40;;;15.40;99.90;;;;;;5117709;28;20201;-70
2022/05/18 02:06:09;;;;;;;13.03;7.50;;;15.30;99.90;;;;;;5117004;28;20730;-71
2022/05/18 02:08:35;;;;;;;8.63;7.77;;;15.40;99.90;;;;;;5117343;28;20199;-69
2022/05/18 02:11:00;;;;;;;12.00;7.87;;;15.40;99.90;;;;;;5117782;27;20544;-69
2022/05/18 02:13:26;;;;;;;11.87;7.73;;;15.40;99.90;;;;;;5119818;27;20515;-68
2022/05/18 02:15:52;;;;;;;15.00;8.50;;;15.30;99.90;;;;;;5137820;27;20659;-69
2022/05/18 02:18:18;;;;;;;11.20;7.87;;;15.30;99.90;;;;;;5137624;27;20632;-68
2022/05/18 02:20:44;;;;;;;9.80;8.10;;;15.30;99.90;;;;;;5137752;27;20166;-70
2022/05/18 02:23:10;;;;;;;12.93;8.33;;;15.30;99.90;;;;;;5137250;27;20232;-68
2022/05/18 02:25:37;;;;;;;8.60;7.80;;;15.20;99.90;;;;;;5119540;27;20181;-68
2022/05/18 02:28:03;;;;;;;15.13;8.10;;;15.00;99.90;;;;;;5137449;27;20158;-69
2022/05/18 02:30:29;;;;;;;7.80;6.80;;;15.10;99.90;;;;;;5137817;27;20172;-69
2022/05/18 02:32:55;;;;;;;9.27;7.13;;;15.10;99.90;;;;;;5137526;27;20244;-69
2022/05/18 02:35:20;;;;;;;11.07;8.13;;;14.90;99.90;;;;;;5137155;27;20161;-69
2022/05/18 02:37:46;;;;;;;8.40;7.60;;;15.00;99.90;;;;;;5125991;27;20182;-70
2022/05/18 02:40:12;;;;;;;11.10;7.77;;;15.10;99.90;;;;;;5127103;27;20192;-71
2022/05/18 02:42:37;;;;;;;9.80;7.73;;;15.00;99.90;;;;;;5116151;28;20250;-68
2022/05/18 02:45:05;;;;;;;10.90;7.87;;;15.00;99.90;;;;;;5116874;28;20531;-70
2022/05/18 02:47:30;;;;;;;9.03;7.37;;;15.00;99.90;;;;;;5116750;28;20170;-69
2022/05/18 02:49:56;;;;;;;9.07;7.40;;;15.00;99.90;;;;;;5118252;27;20253;-69
2022/05/18 02:52:21;;;;;;;11.27;7.33;;;14.90;99.90;;;;;;5137327;27;20166;-69
2022/05/18 02:57:31;;;;;;;9.07;7.80;;;14.90;99.90;;;;;;5139396;27;20535;-69
2022/05/18 02:59:58;;;;;;;10.27;7.93;;;14.80;99.90;;;;;;5133567;27;20174;-68
2022/05/18 03:02:23;;;;;;;9.47;7.47;;;14.70;99.90;;;;;;5135674;27;20651;-68
2022/05/18 03:04:49;;;;;;;8.43;7.53;;;14.80;99.90;;;;;;5122425;27;20182;-68
2022/05/18 03:07:15;;;;;;;12.67;7.90;;;14.90;99.90;;;;;;5117859;28;20311;-68
2022/05/18 03:09:41;;;;;;;11.40;6.90;;;14.80;99.90;;;;;;5126161;28;20174;-69
2022/05/18 03:12:07;;;;;;;9.83;8.17;;;14.70;99.90;;;;;;5123232;28;20154;-69
2022/05/18 03:14:33;;;;;;;10.03;7.37;;;14.80;99.90;;;;;;5117843;28;20185;-69
2022/05/18 03:16:59;;;;;;;11.17;7.63;;;14.60;99.90;;;;;;5126086;27;20467;-68
2022/05/18 03:19:25;;;;;;;15.53;7.80;;;14.50;99.90;;;;;;5131812;27;20227;-71
2022/05/18 03:24:35;;;;;;;10.43;8.70;;;14.50;99.90;;;;;;5131888;27;20526;-69
2022/05/18 03:27:00;;;;;;;8.90;8.00;;;14.40;99.90;;;;;;5132990;27;20177;-69
2022/05/18 03:29:26;;;;;;;11.47;7.90;;;14.50;99.90;;;;;;5124459;27;20177;-67
2022/05/18 03:31:52;;;;;;;10.93;8.07;;;14.40;99.90;;;;;;5114427;27;20618;-68
2022/05/18 03:34:17;;;;;;;8.67;7.63;;;14.30;99.90;;;;;;5131624;27;20197;-69
2022/05/18 03:36:43;;;;;;;10.13;7.80;;;14.20;99.90;;;;;;5117180;27;20284;-69
2022/05/18 03:39:10;;;;;;;12.33;8.27;;;14.30;99.90;;;;;;5133289;27;20181;-69
2022/05/18 03:41:35;;;;;;;9.23;7.20;;;14.40;99.90;;;;;;5123225;27;20201;-70
2022/05/18 03:44:05;;;;;;;11.43;8.23;;;14.40;99.90;;;;;;5122452;27;20200;-69
2022/05/18 03:46:31;;;;;;;9.07;7.87;;;14.40;99.90;;;;;;5122681;27;20536;-69
2022/05/18 03:48:58;;;;;;;9.13;7.40;;;14.10;99.90;;;;;;5123275;27;20186;-70
2022/05/18 03:51:24;;;;;;;9.27;7.57;;;14.20;99.90;;;;;;5120861;27;20185;-69
2022/05/18 03:53:50;;;;;;;9.13;7.60;;;14.10;99.90;;;;;;5123128;27;20511;-71
2022/05/18 03:56:16;;;;;;;13.30;8.20;;;14.10;99.90;;;;;;5122257;27;20202;-70
2022/05/18 03:58:41;;;;;;;8.17;7.37;;;14.20;99.90;;;;;;5123449;27;20632;-69
2022/05/18 04:01:08;;;;;;;12.00;8.53;;;14.20;99.90;;;;;;5122072;27;20186;-68
2022/05/18 04:03:38;;;;;;;9.10;7.63;;;14.20;99.90;;;;;;5122749;27;20181;-69
2022/05/18 04:06:04;;;;;;;8.97;7.73;;;13.90;99.90;;;;;;5120747;27;20760;-68
2022/05/18 04:08:30;;;;;;;13.13;7.93;;;14.10;99.90;;;;;;5104391;27;20186;-69
2022/05/18 04:10:56;;;;;;;11.37;8.10;;;14.20;99.90;;;;;;5120942;27;20590;-68
2022/05/18 04:13:26;;;;;;;12.40;8.57;;;14.10;99.90;;;;;;5120924;27;20185;-68
2022/05/18 04:15:53;;;;;;;9.30;7.63;;;14.20;99.90;;;;;;5121691;27;20225;-69
2022/05/18 04:18:19;;;;;;;11.13;8.43;;;14.10;99.90;;;;;;5121992;27;20211;-68
2022/05/18 04:20:45;;;;;;;8.90;7.47;;;14.10;99.90;;;;;;5122043;27;20186;-68
2022/05/18 04:23:12;;;;;;;11.43;8.13;;;14.00;99.90;;;;;;5120436;27;20185;-68
2022/05/18 04:25:39;;;;;;;9.67;8.10;;;14.00;99.90;;;;;;5102457;27;20508;-70
2022/05/18 04:28:07;;;;;;;10.40;7.47;;;14.20;99.90;;;;;;5132222;27;20174;-69
2022/05/18 04:30:33;;;;;;;9.80;7.77;;;14.20;99.90;;;;;;5124207;27;20166;-69
2022/05/18 04:33:00;;;;;;;9.40;7.83;;;14.10;99.90;;;;;;5121538;27;20205;-69
2022/05/18 04:35:28;;;;;;;8.53;7.30;;;14.30;99.90;;;;;;5119929;27;20177;-68
2022/05/18 04:37:54;;;;;;;8.33;7.37;;;14.40;99.90;;;;;;5121873;27;20679;-68
2022/05/18 04:40:21;;;;;;;10.00;7.57;;;14.40;99.90;;;;;;5122741;27;20285;-71
2022/05/18 04:42:46;;;;;;;8.60;7.37;;;14.40;99.90;;;;;;5120134;27;20249;-69
2022/05/18 04:45:15;;;;;;;9.93;7.10;;;14.40;99.90;;;;;;5121531;27;20313;-70
2022/05/18 04:47:41;;;;;;;11.70;7.40;;;14.20;99.90;;;;;;5122952;27;20539;-69
2022/05/18 04:50:07;;;;;;;8.53;6.80;;;14.50;99.90;;;;;;5119801;28;20178;-69
2022/05/18 04:52:33;;;;;;;9.50;7.33;;;14.60;99.90;;;;;;5121686;28;20191;-68
2022/05/18 04:54:59;;;;;;;12.60;7.40;;;14.50;99.90;;;;;;5120763;28;20192;-70
2022/05/18 04:57:24;;;;;;;12.43;8.10;;;14.60;99.90;;;;;;5121136;28;20288;-68
2022/05/18 04:59:50;;;;;;;12.07;7.37;;;14.70;99.90;;;;;;5122729;28;20211;-68
2022/05/18 05:02:17;;;;;;;13.10;7.80;;;14.70;99.90;;;;;;5123298;28;20182;-68
2022/05/18 05:04:43;;;;;;;9.77;7.17;;;14.70;99.90;;;;;;5122241;28;20533;-68
2022/05/18 05:07:08;;;;;;;10.50;7.53;;;14.90;99.90;;;;;;5099722;28;20226;-68
2022/05/18 05:09:34;;;;;;;10.03;7.63;;;14.90;99.90;;;;;;5100381;28;20739;-68
2022/05/18 05:12:01;;;;;;;9.93;7.17;;;15.10;99.90;;;;;;5100974;28;20194;-68
2022/05/18 05:14:26;;;;;;;10.47;7.50;;;15.10;99.90;;;;;;5100990;28;20182;-69
2022/05/18 05:16:52;;;;;;;9.60;6.13;;;15.10;99.90;;;;;;5099286;28;20330;-68
2022/05/18 05:19:18;;;;;;;8.43;6.90;;;14.90;99.90;;;;;;5099936;28;20211;-68
2022/05/18 05:21:44;;;;;;;9.40;7.00;;;15.00;99.90;;;;;;5100274;28;20179;-69
2022/05/18 05:24:11;;;;;;;8.40;7.50;;;15.10;99.90;;;;;;5099946;28;20677;-69
2022/05/18 05:26:37;;;;;;;8.53;6.67;;;15.20;99.90;;;;;;5101311;28;20266;-69
2022/05/18 05:29:03;;;;;;;9.93;6.80;;;15.00;99.90;;;;;;5099147;28;20362;-69
2022/05/18 05:31:29;;;;;;;11.10;7.83;;;15.00;99.90;;;;;;5132114;27;20643;-67
2022/05/18 05:33:56;;;;;;;8.47;7.20;;;15.10;99.90;;;;;;5132730;27;20214;-69
2022/05/18 05:36:22;;;;;;;10.87;7.13;;;15.30;99.90;;;;;;5100820;28;20665;-67
2022/05/18 05:38:47;;;;;;;8.67;7.17;;;15.40;99.90;;;;;;5099967;28;20241;-67
2022/05/18 05:41:13;;;;;;;11.17;5.97;;;15.30;99.90;;;;;;5100337;28;20177;-68
2022/05/18 05:43:40;;;;;;;7.43;6.63;;;15.30;99.90;;;;;;5100908;28;20193;-67
2022/05/18 05:46:10;;;;;;;7.47;6.67;;;15.40;99.90;;;;;;5105310;28;20174;-69
2022/05/18 05:48:36;;;;;;;11.97;6.00;;;15.60;99.90;;;;;;5099183;28;20193;-67
2022/05/18 05:51:03;;;;;;;8.83;6.30;;;15.70;99.90;;;;;;5102305;28;20178;-67
2022/05/18 05:53:29;;;;;;;12.13;6.93;;;15.90;99.90;;;;;;5103940;28;20174;-68
2022/05/18 05:55:55;;;;;;;8.27;6.10;;;15.90;99.90;;;;;;5137425;27;20208;-67
2022/05/18 05:58:22;;;;;;;6.57;5.60;;;16.00;99.90;;;;;;5103825;28;20193;-65
2022/05/18 06:00:47;;;;;;;5.80;5.20;;;16.00;99.90;;;;;;5108859;28;20181;-69
2022/05/18 06:03:14;;;;;;;8.90;5.33;;;16.00;99.90;;;;;;5117679;28;20202;-70
2022/05/18 06:05:40;;;;;;;10.70;5.57;;;16.20;99.90;;;;;;5105810;27;20255;-67
2022/05/18 06:08:06;;;;;;;5.20;4.70;;;16.30;99.90;;;;;;5124106;27;20177;-68
2022/05/18 06:10:34;;;;;;;7.07;5.23;;;16.10;99.90;;;;;;5124691;27;20700;-67
2022/05/18 06:13:08;;;;;;;5.00;4.50;;;16.30;99.90;;;;;;5123681;27;20205;-67
2022/05/18 06:15:34;;;;;;;8.97;5.17;;;16.40;99.90;;;;;;5124682;27;20232;-67
2022/05/18 06:18:00;;;;;;;6.67;5.20;;;16.60;99.90;;;;;;5124429;27;20174;-66
2022/05/18 06:20:25;;;;;;;8.40;4.50;;;16.70;99.90;;;;;;5123662;27;20617;-66
2022/05/18 06:22:51;;;;;;;7.15;5.03;;;16.80;99.90;;;;;;5124025;27;20196;-67
2022/05/18 06:25:18;;;;;;;7.10;4.77;;;16.90;99.90;;;;;;5123598;27;20190;-67
2022/05/18 06:27:44;;;;;;;5.80;4.63;;;17.00;99.90;;;;;;5123176;27;20694;-65
2022/05/18 06:30:12;;;;;;;9.93;4.95;;;17.00;99.90;;;;;;5104951;27;20185;-67
2022/05/18 06:32:38;;;;;;;6.78;5.25;;;17.10;99.90;;;;;;5123134;27;20269;-67
2022/05/18 06:35:05;;;;;;;7.95;4.82;;;17.30;99.90;;;;;;5125018;27;20265;-66
2022/05/18 06:37:30;;;;;;;9.00;5.00;;;17.40;99.90;;;;;;5138630;27;20517;-68
2022/05/18 06:39:56;;;;;;;5.53;4.93;;;17.50;99.90;;;;;;5122977;27;20219;-66
2022/05/18 06:42:22;;;;;;;5.28;4.65;;;17.60;99.90;;;;;;5123611;27;20186;-67
2022/05/18 06:44:47;;;;;;;7.30;4.38;;;17.80;99.90;;;;;;5123528;27;20200;-67
2022/05/18 06:47:13;;;;;;;5.70;4.28;;;17.90;99.90;;;;;;5123913;27;20189;-68
2022/05/18 06:49:40;;;;;;;12.40;4.05;;;18.00;99.90;;;;;;5124075;27;20200;-66
2022/05/18 06:52:07;;;;;;;4.93;3.88;;;18.00;99.90;;;;;;5122731;27;20186;-67
2022/05/18 06:54:32;;;;;;;8.30;4.05;;;18.20;99.90;;;;;;5123029;27;20178;-65
2022/05/18 06:56:58;;;;;;;5.15;4.30;;;18.30;99.90;;;;;;5103183;27;20238;-68
2022/05/18 06:59:23;;;;;;;8.90;4.00;;;18.50;99.90;;;;;;5122415;27;20190;-67
2022/05/18 07:01:50;;;;;;;4.72;3.90;;;18.60;99.90;;;;;;5122164;27;20196;-66
2022/05/18 07:04:16;;;;;;;7.75;3.85;;;18.60;99.90;;;;;;5124215;27;20194;-66
2022/05/18 07:06:43;;;;;;;6.72;4.57;;;18.60;99.90;;;;;;5130830;27;20237;-65
2022/05/18 07:09:21;;;;;;;8.32;4.70;;;18.70;99.90;;;;;;5130218;27;20185;-66
2022/05/18 07:11:49;;;;;;;5.00;3.95;;;18.80;99.90;;;;;;5143726;27;20173;-66
2022/05/18 07:14:20;;;;;;;8.23;4.25;;;18.80;99.90;;;;;;5123655;27;20181;-66
2022/05/18 07:16:47;;;;;;;7.13;4.25;;;19.00;99.90;;;;;;5139590;27;20533;-66
2022/05/18 07:19:14;;;;;;;8.00;4.38;;;18.90;99.90;;;;;;5123824;27;20230;-67
2022/05/18 07:21:40;;;;;;;5.60;4.68;;;19.00;99.90;;;;;;5105866;27;20173;-67
2022/05/18 07:24:06;;;;;;;7.70;5.05;;;19.20;99.90;;;;;;5138467;27;20182;-67
2022/05/18 07:26:34;;;;;;;10.82;4.70;;;19.20;99.90;;;;;;5122656;27;20192;-65
2022/05/18 07:29:00;;;;;;;6.03;4.35;;;19.30;99.90;;;;;;5123622;27;20185;-68
2022/05/18 07:31:26;;;;;;;9.88;4.80;;;19.50;99.90;;;;;;5128279;27;20181;-65
2022/05/18 07:33:52;;;;;;;8.25;4.68;;;19.60;99.90;;;;;;5124753;27;20245;-67
2022/05/18 07:36:18;;;;;;;8.75;4.25;;;19.60;99.90;;;;;;5123079;27;20288;-66
2022/05/18 07:38:44;;;;;;;8.25;4.43;;;19.70;99.90;;;;;;5122540;27;20545;-65
2022/05/18 07:41:14;;;;;;;5.88;4.13;;;19.80;99.90;;;;;;5121913;27;20181;-67
2022/05/18 07:43:40;;;;;;;6.50;4.43;;;19.90;99.90;;;;;;5121433;27;20180;-66
2022/05/18 07:46:07;;;;;;;6.65;4.55;;;20.10;99.90;;;;;;5122766;27;20531;-66
2022/05/18 07:48:33;;;;;;;6.15;4.75;;;20.20;99.90;;;;;;5122113;27;20184;-66
2022/05/18 07:50:59;;;;;;;8.02;4.78;;;20.10;99.90;;;;;;5111955;27;20218;-65
2022/05/18 07:53:25;;;;;;;8.70;5.00;;;20.30;99.90;;;;;;5122717;27;20188;-66
2022/05/18 07:55:51;;;;;;;7.18;4.55;;;20.20;99.90;;;;;;5121028;27;20208;-65
2022/05/18 07:58:19;;;;;;;8.07;4.53;;;20.20;99.90;;;;;;5122028;27;20184;-67
2022/05/18 08:00:46;;;;;;;6.30;4.43;;;20.30;99.90;;;;;;5121477;27;20553;-66
2022/05/18 08:03:12;;;;;;;5.03;4.00;;;20.40;99.90;;;;;;5122574;27;20261;-67
2022/05/18 08:05:43;;;;;;;8.85;4.60;;;20.50;99.90;;;;;;5122111;27;20181;-67
2022/05/18 08:08:12;;;;;;;7.30;4.30;;;20.70;99.90;;;;;;5122852;27;20187;-66
2022/05/18 08:16:09;;;;;;;9.18;4.68;;;21.00;99.90;;;;;;5123288;27;20572;-67
2022/05/18 08:18:34;;;;;;;8.07;4.57;;;21.10;99.90;;;;;;5123513;27;20641;-65
2022/05/18 08:21:00;;;;;;;8.55;5.28;;;21.10;99.90;;;;;;5121684;27;20508;-65
2022/05/18 08:23:25;;;;;;;5.65;4.35;;;21.30;99.90;;;;;;5122536;27;20186;-71
2022/05/18 08:25:54;;;;;;;7.80;4.68;;;21.40;99.90;;;;;;5124907;27;20207;-69
2022/05/18 08:28:20;;;;;;;9.80;4.55;;;21.20;99.90;;;;;;5126876;27;20562;-69
2022/05/18 08:30:45;;;;;;;5.47;4.40;;;21.40;99.90;;;;;;5125965;27;20187;-67
2022/05/18 08:33:11;;;;;;;7.03;4.30;;;21.60;99.90;;;;;;5127997;27;20687;-67
2022/05/18 08:35:37;;;;;;;7.80;4.90;;;21.70;99.90;;;;;;5129651;27;20260;-66
2022/05/18 08:38:03;;;;;;;6.50;4.43;;;21.60;99.90;;;;;;5141695;27;20189;-67
2022/05/18 08:40:29;;;;;;;4.65;4.18;;;21.60;99.90;;;;;;5128155;27;20256;-65
2022/05/18 08:43:00;;;;;;;7.65;4.28;;;21.60;99.90;;;;;;5125051;27;20189;-68
2022/05/18 08:45:30;;;;;;;12.23;4.35;;;22.00;99.90;;;;;;5122826;27;20173;-69
2022/05/18 08:48:18;;;;;;;7.95;4.30;;;21.80;99.90;;;;;;5126267;28;20179;-67
2022/05/18 08:50:44;;;;;;;5.75;5.07;;;22.10;99.90;;;;;;5125382;28;20468;-66
2022/05/18 08:53:44;;;;;;;11.88;5.00;;;22.10;99.90;;;;;;5141470;27;20182;-69
2022/05/18 08:56:19;;;;;;;8.38;4.43;;;22.40;99.90;;;;;;5113709;28;20213;-69
2022/05/18 08:58:51;;;;;;;8.95;5.10;;;22.50;99.90;;;;;;5142423;27;20567;-67
2022/05/18 09:01:35;;;;;;;6.43;4.22;;;22.70;99.90;;;;;;5121381;28;20217;-69
2022/05/18 09:04:21;;;;;;;7.03;4.50;;;23.00;99.90;;;;;;5121541;28;20181;-67
2022/05/18 09:07:15;;;;;;;7.60;4.30;;;23.00;99.90;;;;;;5121207;28;20248;-66
2022/05/18 09:12:37;;;;;;;6.28;4.10;;;22.90;99.90;;;;;;5120541;28;20219;-68
2022/05/18 09:15:07;;;;;;;5.60;3.95;;;23.00;99.90;;;;;;5121287;28;20613;-67
2022/05/18 09:17:55;;;;;;;10.65;3.97;;;23.10;99.90;;;;;;5120060;28;20298;-68
2022/05/18 09:20:32;;;;;;;7.75;3.63;;;23.20;99.90;;;;;;5119704;28;20204;-66
2022/05/18 09:23:13;;;;;;;4.68;3.47;;;23.00;99.90;;;;;;5121253;28;20174;-67
2022/05/18 09:26:10;;;;;;;7.55;3.63;;;23.10;99.90;;;;;;5125386;27;20252;-69
2022/05/18 09:28:35;;;;;;;3.80;3.40;;;23.30;99.90;;;;;;5124849;27;20178;-67
2022/05/18 09:31:25;;;;;;;7.70;4.15;;;23.20;99.90;;;;;;5125191;27;20185;-66
2022/05/18 09:33:56;;;;;;;9.73;4.93;;;23.30;99.90;;;;;;5123959;27;20186;-68
2022/05/18 09:36:49;;;;;;;7.80;3.90;;;23.30;99.90;;;;;;5141210;27;20196;-69
2022/05/18 09:39:19;;;;;;;6.07;3.47;;;23.30;99.90;;;;;;5127577;27;20188;-67
2022/05/18 09:41:50;;;;;;;6.40;3.50;;;23.50;98.70;;;;;;5123742;27;20186;-66
2022/05/18 09:44:25;;;;;;;7.15;3.85;;;23.70;98.20;;;;;;5124631;27;20178;-67
2022/05/18 09:46:52;;;;;;;4.82;3.35;;;23.60;93.80;;;;;;5124398;27;20186;-67
2022/05/18 09:49:51;;;;;;;8.35;3.25;;;23.60;92.30;;;;;;5124422;27;20268;-66
2022/05/18 09:52:24;;;;;;;3.38;2.75;;;23.70;90.10;;;;;;5110759;27;20219;-66
2022/05/18 09:54:53;;;;;;;4.55;2.80;;;23.50;84.30;;;;;;5124801;27;20654;-67
2022/05/18 09:57:21;;;;;;;8.10;4.03;;;23.80;86.40;;;;;;5126742;27;20251;-67
2022/05/18 10:00:00;;;;;;;6.32;3.60;;;24.00;88.10;;;;;;5123612;27;20589;-68
2022/05/18 10:08:12;;;;;;;8.13;2.90;;;24.00;86.30;;;;;;5122382;27;20192;-66
2022/05/18 10:10:38;;;;;;;4.07;3.20;;;24.00;85.90;;;;;;5124708;27;20645;-66
2022/05/18 10:13:14;;;;;;;3.90;3.03;;;24.30;83.90;;;;;;5122949;27;20263;-68
2022/05/18 10:15:48;;;;;;;6.72;3.35;;;24.40;84.20;;;;;;5125582;27;20204;-67
2022/05/18 10:18:39;;;;;;;5.78;3.70;;;24.30;81.60;;;;;;5123318;27;20295;-68
2022/05/18 10:21:12;;;;;;;6.70;3.78;;;24.20;81.10;;;;;;5124234;27;20217;-68
2022/05/18 10:24:03;;;;;;;7.25;3.88;;;24.60;83.50;;;;;;5123951;27;20215;-68
2022/05/18 10:26:32;;;;;;;5.20;3.97;;;24.50;84.70;;;;;;5125458;27;20566;-67
2022/05/18 10:29:08;;;;;;;5.93;3.63;;;24.30;87.10;;;;;;5122651;27;20261;-67
2022/05/18 10:31:42;;;;;;;10.30;3.72;;;24.30;87.80;;;;;;5125060;27;20314;-67
2022/05/18 10:34:18;;;;;;;8.55;3.75;;;24.40;86.70;;;;;;5115365;27;20177;-67
2022/05/18 10:36:51;;;;;;;4.68;3.58;;;24.40;86.50;;;;;;5125328;27;20678;-69
2022/05/18 10:39:38;;;;;;;6.50;4.05;;;24.60;85.10;;;;;;5124812;27;20185;-67
2022/05/18 10:42:21;;;;;;;6.20;3.85;;;24.70;84.90;;;;;;5125823;27;20334;-67
2022/05/18 10:44:47;;;;;;;5.60;3.95;;;24.50;82.20;;;;;;5123169;27;20193;-67
2022/05/18 10:47:39;;;;;;;4.75;3.60;;;24.50;82.40;;;;;;5124709;27;20641;-67
2022/05/18 10:50:25;;;;;;;10.73;4.07;;;24.70;85.70;;;;;;5119361;27;20198;-68
2022/05/18 10:53:10;;;;;;;7.93;6.20;;;24.40;82.80;;;;;;5123800;27;20193;-69
2022/05/18 10:55:53;;;;;;;6.22;3.67;;;24.70;84.20;;;;;;5122771;27;20238;-68
2022/05/18 10:58:29;;;;;;;7.35;4.20;;;24.60;78.40;;;;;;5124169;27;20315;-68
2022/05/18 11:01:07;;;;;;;5.15;3.85;;;24.50;80.40;;;;;;5123563;27;20196;-70
2022/05/18 11:03:57;;;;;;;7.00;4.53;;;24.80;83.90;;;;;;5122138;27;20268;-68
2022/05/18 11:06:32;;;;;;;5.35;4.07;;;25.00;83.00;;;;;;5123115;27;20221;-68
2022/05/18 11:09:00;;;;;;;6.38;3.80;;;25.20;83.60;;;;;;5123547;27;20181;-67
2022/05/18 11:11:49;;;;;;;5.70;4.13;;;24.00;79.90;;;;;;5124137;27;20186;-67
2022/05/18 11:14:21;;;;;;;7.32;4.57;;;24.20;85.00;;;;;;5122161;27;20185;-67
2022/05/18 11:17:06;;;;;;;6.05;3.90;;;24.80;82.10;;;;;;5124691;27;20664;-69
2022/05/18 11:20:07;;;;;;;6.00;4.00;;;24.90;80.90;;;;;;5127171;27;20272;-67
2022/05/18 11:22:49;;;;;;;5.75;4.30;;;25.10;78.70;;;;;;5117212;27;20614;-67
2022/05/18 11:25:53;;;;;;;8.25;4.70;;;24.60;78.50;;;;;;5142950;27;20178;-68
2022/05/18 11:28:41;;;;;;;5.10;4.03;;;24.80;79.90;;;;;;5115459;27;20543;-66
2022/05/18 11:31:29;;;;;;;5.57;3.65;;;24.70;78.00;;;;;;5123116;27;20169;-69
2022/05/18 11:34:13;;;;;;;6.82;4.25;;;24.40;81.10;;;;;;5122630;27;20260;-66
2022/05/18 11:36:53;;;;;;;9.80;4.50;;;24.70;79.80;;;;;;5121824;27;20606;-68
2022/05/18 11:39:21;;;;;;;6.63;4.72;;;24.90;80.00;;;;;;5123567;27;20204;-69
2022/05/18 11:42:02;;;;;;;4.88;4.10;;;24.90;78.40;;;;;;5122310;27;20676;-68
2022/05/18 11:44:55;;;;;;;4.85;4.20;;;25.00;75.60;;;;;;5122401;27;20268;-67
2022/05/18 11:47:45;;;;;;;6.72;4.75;;;25.00;76.40;;;;;;5105690;27;20201;-70
2022/05/18 11:50:32;;;;;;;5.53;4.78;;;25.20;74.30;;;;;;5131750;27;20181;-68
2022/05/18 11:53:30;;;;;;;6.20;4.65;;;25.10;76.50;;;;;;5128737;27;20185;-69
2022/05/18 11:56:27;;;;;;;7.50;4.90;;;25.10;76.60;;;;;;5081178;27;20562;-69
2022/05/18 12:02:05;;;;;;;7.05;4.75;;;24.80;76.90;;;;;;5129829;27;20200;-68
2022/05/18 12:05:02;;;;;;;6.28;4.22;;;25.10;76.10;;;;;;5132354;27;20325;-68
2022/05/18 12:08:26;;;;;;;5.35;4.75;;;24.80;72.90;;;;;;5112132;27;20244;-66
2022/05/18 12:11:10;;;;;;;7.90;5.18;;;24.80;74.90;;;;;;5040895;28;20508;-67
2022/05/18 12:13:43;;;;;;;7.68;4.95;;;25.20;74.20;;;;;;5032244;28;20195;-66
2022/05/18 12:16:53;;;;;;;6.03;4.63;;;24.90;73.20;;;;;;5041303;28;20611;-65
2022/05/18 12:19:25;;;;;;;7.60;5.35;;;25.30;74.30;;;;;;5030433;28;20204;-65
2022/05/18 12:22:06;;;;;;;6.28;4.38;;;25.50;74.10;;;;;;5044785;28;20254;-68
2022/05/18 12:24:33;;;;;;;8.32;5.18;;;25.30;70.30;;;;;;5039237;28;20198;-67
2022/05/18 12:26:59;;;;;;;8.20;4.72;;;25.30;73.00;;;;;;5039291;28;20188;-68
2022/05/18 12:29:26;;;;;;;10.63;5.32;;;25.50;74.50;;;;;;5039118;28;20231;-67
2022/05/18 12:31:55;;;;;;;10.40;5.10;;;25.20;73.50;;;;;;5046519;28;20259;-67
2022/05/18 12:34:26;;;;;;;7.78;4.40;;;25.20;75.80;;;;;;5038066;28;20220;-65
2022/05/18 12:37:14;;;;;;;11.70;4.75;;;25.10;72.70;;;;;;5039855;28;20200;-66
2022/05/18 12:39:48;;;;;;;7.90;4.80;;;25.20;74.20;;;;;;5038550;28;20239;-68
2022/05/18 12:42:24;;;;;;;6.75;4.18;;;25.50;75.00;;;;;;5113034;27;20268;-67
2022/05/18 12:45:03;;;;;;;9.10;4.72;;;25.00;73.50;;;;;;5121140;27;20165;-66
2022/05/18 12:47:39;;;;;;;6.80;4.60;;;25.20;74.20;;;;;;5128960;27;20228;-66
2022/05/18 12:50:08;;;;;;;4.88;4.35;;;25.60;75.20;;;;;;5122015;27;20177;-68
2022/05/18 12:52:57;;;;;;;5.40;4.32;;;25.80;74.70;;;;;;5122618;27;20200;-69
2022/05/18 12:55:31;;;;;;;5.22;4.72;;;25.60;71.60;;;;;;5134794;28;20177;-66
2022/05/18 12:58:09;;;;;;;6.75;5.32;;;25.40;74.40;;;;;;5135250;28;20233;-67
2022/05/18 13:00:57;;;;;;;5.60;4.82;;;25.30;75.60;;;;;;5136556;27;20177;-69
2022/05/18 13:03:37;;;;;;;6.65;4.30;;;25.10;74.20;;;;;;5139730;27;20168;-66
2022/05/18 13:06:14;;;;;;;5.13;4.47;;;25.50;76.50;;;;;;5139452;27;20668;-69
2022/05/18 13:08:40;;;;;;;8.10;4.70;;;25.80;76.60;;;;;;5139614;27;20199;-67
2022/05/18 13:11:17;;;;;;;7.35;5.50;;;25.80;74.70;;;;;;5139934;27;20158;-69
2022/05/18 13:13:58;;;;;;;5.63;4.90;;;25.60;74.10;;;;;;5141368;27;20267;-66
2022/05/18 13:16:39;;;;;;;5.47;4.97;;;25.40;78.40;;;;;;5141759;27;20224;-66
2022/05/18 13:19:14;;;;;;;5.85;5.22;;;25.60;75.60;;;;;;5142784;27;20172;-64
2022/05/18 13:21:44;;;;;;;5.10;4.60;;;25.40;75.10;;;;;;5140424;27;20168;-66
2022/05/18 13:24:48;;;;;;;7.28;4.70;;;25.60;75.00;;;;;;5140831;27;20265;-64
2022/05/18 13:27:16;;;;;;;6.22;4.60;;;25.80;76.40;;;;;;5130579;27;20188;-65
2022/05/18 13:29:44;;;;;;;8.65;4.72;;;25.70;75.30;;;;;;5140584;27;20161;-65